Time;durP1;ratioP1;P1;durP2;ratioP2;P2;SDS_P1;SDS_P2;PMS_P1;PMS_P2;Temp;Humidity;BMP_temperature;BMP_pressure;BME280_temperature;BME280_humidity;BME280_pressure;Samples;Min_cycle;Max_cycle;Signal;HPM_P1;HPM_P2
2022/01/09 00:01:28;;;;;;;;;0.00;0.00;;;;;22.66;40.35;99901.66;5047768;28;45353;-69
2022/01/09 00:03:53;;;;;;;;;0.00;0.00;;;;;22.57;40.67;99900.22;5040714;28;45484;-71
2022/01/09 00:06:19;;;;;;;;;0.00;0.00;;;;;22.65;40.67;99915.91;5028093;28;46266;-70
2022/01/09 00:08:44;;;;;;;;;0.00;0.00;;;;;22.65;40.79;99915.91;5043310;28;45504;-69
2022/01/09 00:11:15;;;;;;;;;0.00;0.00;;;;;22.61;40.61;99918.16;5039987;28;45425;-68
2022/01/09 00:13:41;;;;;;;;;0.67;0.67;;;;;22.58;40.45;99923.09;5037640;28;45445;-69
2022/01/09 00:16:07;;;;;;;;;1.33;0.00;;;;;22.56;40.72;99930.44;5040192;28;46935;-69
2022/01/09 00:18:33;;;;;;;;;0.00;0.00;;;;;22.52;40.59;99938.78;5049996;28;45648;-70
2022/01/09 00:20:59;;;;;;;;;0.00;0.00;;;;;22.43;40.51;99924.09;5050138;28;45648;-69
2022/01/09 00:23:24;;;;;;;;;0.33;0.00;;;;;22.49;40.55;99933.06;5052593;28;45532;-69
2022/01/09 00:25:50;;;;;;;;;0.33;0.33;;;;;22.43;40.68;99932.03;5051147;28;46022;-69
2022/01/09 00:28:15;;;;;;;;;0.00;0.00;;;;;22.37;40.56;99935.53;5051176;28;45296;-69
2022/01/09 00:30:41;;;;;;;;;2.00;1.00;;;;;22.45;41.12;99972.44;5046549;28;45487;-69
2022/01/09 00:33:06;;;;;;;;;1.67;0.00;;;;;22.47;41.04;99978.34;5043657;28;45627;-69
2022/01/09 00:35:33;;;;;;;;;0.00;0.00;;;;;22.50;40.34;99980.59;5050557;28;46080;-69
2022/01/09 00:37:58;;;;;;;;;0.00;0.00;;;;;22.49;40.89;99956.94;5052832;28;45465;-70
2022/01/09 00:40:24;;;;;;;;;0.00;0.00;;;;;22.54;40.06;99972.22;5053312;28;45512;-70
2022/01/09 00:42:49;;;;;;;;;0.00;0.00;;;;;22.51;39.01;99968.94;5043189;28;45531;-71
2022/01/09 00:45:15;;;;;;;;;1.00;0.67;;;;;22.45;37.61;99966.31;5046385;28;45562;-70
2022/01/09 00:47:41;;;;;;;;;0.00;0.00;;;;;22.45;37.68;99977.75;5046162;28;45504;-71
2022/01/09 00:50:08;;;;;;;;;1.00;0.00;;;;;22.43;38.28;99992.22;5041011;28;45552;-69
2022/01/09 00:52:33;;;;;;;;;2.25;1.00;;;;;22.42;36.89;99993.22;5042665;28;45344;-69
2022/01/09 00:54:58;;;;;;;;;4.75;1.75;;;;;22.26;36.00;100004.03;5045513;28;45371;-68
2022/01/09 00:57:24;;;;;;;;;3.50;1.00;;;;;22.10;37.41;99986.69;5051922;28;45418;-68
2022/01/09 00:59:50;;;;;;;;;0.00;0.00;;;;;22.18;37.86;100012.16;5047079;28;45339;-68
2022/01/09 01:02:15;;;;;;;;;0.00;0.00;;;;;22.20;38.33;100010.13;5038980;28;45430;-68
2022/01/09 01:04:41;;;;;;;;;1.33;0.00;;;;;22.13;38.30;99990.75;5053738;28;46270;-68
2022/01/09 01:07:07;;;;;;;;;0.00;0.00;;;;;22.20;38.07;100002.16;5034089;28;45460;-68
2022/01/09 01:09:32;;;;;;;;;0.00;0.00;;;;;22.26;38.38;100019.91;5043522;28;45446;-68
2022/01/09 01:11:59;;;;;;;;;1.00;0.00;;;;;22.26;37.70;100021.75;5042009;28;45407;-69
2022/01/09 01:14:26;;;;;;;;;0.00;0.00;;;;;22.27;38.09;100018.09;5053599;28;46013;-68
2022/01/09 01:16:52;;;;;;;;;0.00;0.00;;;;;22.27;38.40;100023.41;5042509;28;45679;-69
2022/01/09 01:19:17;;;;;;;;;0.00;0.00;;;;;22.28;38.39;100025.00;5052923;28;45355;-68
2022/01/09 01:21:42;;;;;;;;;1.00;1.00;;;;;22.29;37.97;100031.94;5052952;28;45434;-69
2022/01/09 01:24:08;;;;;;;;;1.33;0.00;;;;;22.29;38.04;100050.50;5032637;28;51030;-68
2022/01/09 01:26:33;;;;;;;;;0.25;0.00;;;;;22.24;38.56;100059.06;5041937;28;45512;-69
2022/01/09 01:28:59;;;;;;;;;0.33;0.33;;;;;22.29;38.33;100069.06;5040759;28;45488;-68
2022/01/09 01:31:24;;;;;;;;;0.00;0.00;;;;;22.29;37.86;100061.09;5040306;28;45344;-68
2022/01/09 01:33:49;;;;;;;;;0.00;0.00;;;;;22.27;37.93;100061.31;5051332;28;45355;-68
2022/01/09 01:36:15;;;;;;;;;2.67;0.00;;;;;22.29;37.94;100079.66;5046336;28;45600;-68
2022/01/09 01:38:40;;;;;;;;;0.00;0.00;;;;;22.00;38.08;100045.34;5049036;28;45211;-68
2022/01/09 01:41:05;;;;;;;;;0.50;0.00;;;;;22.28;38.23;100080.66;5052868;28;45231;-68
2022/01/09 01:43:31;;;;;;;;;1.00;0.00;;;;;22.19;38.29;100072.09;5043966;28;46158;-68
2022/01/09 01:45:59;;;;;;;;;0.33;0.33;;;;;22.28;38.24;100100.03;5051106;28;47209;-68
2022/01/09 01:48:25;;;;;;;;;0.67;0.67;;;;;22.28;38.26;100086.78;5041882;28;45511;-68
2022/01/09 01:50:51;;;;;;;;;0.00;0.00;;;;;22.27;38.08;100079.03;5047124;28;45449;-68
2022/01/09 01:53:19;;;;;;;;;0.50;0.00;;;;;22.28;37.91;100078.00;5051213;28;45855;-69
2022/01/09 01:55:48;;;;;;;;;1.00;1.00;;;;;22.27;37.98;100077.22;5053210;28;45374;-68
2022/01/09 01:58:13;;;;;;;;;0.00;0.00;;;;;22.21;37.91;100079.81;5036366;28;45349;-68
2022/01/09 02:00:41;;;;;;;;;0.00;0.00;;;;;22.27;37.78;100090.47;5041494;28;45464;-68
2022/01/09 02:03:08;;;;;;;;;0.00;0.00;;;;;22.21;37.86;100085.94;5043672;28;46466;-68
2022/01/09 02:05:33;;;;;;;;;0.00;0.00;;;;;22.26;38.22;100094.13;5049333;28;45235;-68
2022/01/09 02:08:01;;;;;;;;;2.25;0.00;;;;;22.25;38.00;100087.16;5052877;28;45396;-68
2022/01/09 02:10:27;;;;;;;;;2.67;1.00;;;;;22.14;37.96;100091.25;5039355;28;45312;-69
2022/01/09 02:12:56;;;;;;;;;0.00;0.00;;;;;22.16;38.16;100099.81;5040992;28;46034;-68
2022/01/09 02:15:34;;;;;;;;;0.00;0.00;;;;;22.25;38.03;100115.53;5039711;28;45540;-68
2022/01/09 02:18:02;;;;;;;;;0.00;0.00;;;;;22.24;37.94;100120.00;5041089;28;45524;-68
2022/01/09 02:20:28;;;;;;;;;2.00;0.00;;;;;22.24;37.54;100129.78;5040028;28;45603;-68
2022/01/09 02:22:54;;;;;;;;;0.00;0.00;;;;;22.20;37.70;100131.22;5037441;28;45517;-68
2022/01/09 02:25:19;;;;;;;;;0.00;0.00;;;;;22.19;38.34;100143.63;5039580;28;45414;-68
2022/01/09 02:27:46;;;;;;;;;0.25;0.00;;;;;22.22;38.06;100135.28;5048648;28;45268;-68
2022/01/09 02:30:11;;;;;;;;;1.00;1.00;;;;;22.23;38.10;100147.50;5051231;28;45524;-68
2022/01/09 02:32:37;;;;;;;;;1.00;0.00;;;;;22.24;38.12;100140.38;5050388;28;46155;-68
2022/01/09 02:35:02;;;;;;;;;0.00;0.00;;;;;22.23;37.64;100146.69;5037816;28;45489;-68
2022/01/09 02:37:28;;;;;;;;;0.00;0.00;;;;;22.21;38.06;100141.59;5053091;28;45302;-68
2022/01/09 02:39:53;;;;;;;;;1.00;1.00;;;;;22.23;37.91;100149.34;5041098;28;45366;-68
2022/01/09 02:42:28;;;;;;;;;1.00;0.00;;;;;22.24;37.56;100166.88;5037276;28;45357;-68
2022/01/09 02:44:57;;;;;;;;;1.00;0.00;;;;;22.24;37.66;100157.09;5043788;28;45279;-68
2022/01/09 02:47:25;;;;;;;;;0.00;0.00;;;;;22.12;37.69;100140.16;5042040;28;45327;-68
2022/01/09 02:49:53;;;;;;;;;0.00;0.00;;;;;22.24;37.95;100156.28;5052192;28;45435;-68
2022/01/09 02:52:47;;;;;;;;;0.67;0.00;;;;;22.24;37.54;100156.28;5055322;28;47046;-68
2022/01/09 02:55:14;;;;;;;;;0.00;0.00;;;;;22.17;37.59;100145.66;5051103;28;45303;-68
2022/01/09 02:57:45;;;;;;;;;1.25;0.00;;;;;22.23;38.06;100142.22;5048143;28;45270;-68
2022/01/09 03:00:15;;;;;;;;;0.00;0.00;;;;;22.23;37.43;100144.03;5049148;28;45386;-68
2022/01/09 03:02:41;;;;;;;;;1.00;0.00;;;;;22.21;37.36;100144.25;5049284;28;46060;-68
2022/01/09 03:05:08;;;;;;;;;0.00;0.00;;;;;22.21;37.65;100131.00;5051083;28;45369;-68
2022/01/09 03:07:33;;;;;;;;;0.00;0.00;;;;;22.22;37.44;100147.72;5053344;28;45529;-69
2022/01/09 03:09:58;;;;;;;;;1.00;1.00;;;;;22.21;37.57;100151.38;5049949;28;45454;-68
2022/01/09 03:12:24;;;;;;;;;2.75;0.00;;;;;22.21;37.65;100159.31;5043953;28;45966;-68
2022/01/09 03:14:49;;;;;;;;;2.00;1.00;;;;;22.21;37.46;100161.97;5040070;28;45427;-68
2022/01/09 03:17:15;;;;;;;;;0.00;0.00;;;;;22.17;37.79;100154.41;5038906;28;45359;-68
2022/01/09 03:19:40;;;;;;;;;0.00;0.00;;;;;22.20;37.83;100155.06;5035450;28;45498;-69
2022/01/09 03:22:05;;;;;;;;;1.00;1.00;;;;;22.19;37.65;100151.56;5055234;28;46224;-68
2022/01/09 03:24:31;;;;;;;;;0.00;0.00;;;;;22.18;37.59;100156.06;5042428;28;45425;-69
2022/01/09 03:26:56;;;;;;;;;1.00;1.00;;;;;22.17;37.76;100150.97;5041389;28;45805;-69
2022/01/09 03:29:22;;;;;;;;;0.00;0.00;;;;;22.18;37.32;100161.34;5036995;28;45299;-68
2022/01/09 03:31:47;;;;;;;;;2.00;1.00;;;;;22.18;37.33;100165.81;5051997;28;45499;-68
2022/01/09 03:34:12;;;;;;;;;1.00;0.00;;;;;22.17;37.38;100175.59;5039838;28;45266;-68
2022/01/09 03:36:38;;;;;;;;;0.00;0.00;;;;;22.15;37.32;100161.75;5038903;28;45308;-69
2022/01/09 03:39:03;;;;;;;;;0.00;0.00;;;;;22.16;37.87;100181.94;5036665;28;45594;-68
2022/01/09 03:41:28;;;;;;;;;1.00;0.00;;;;;22.13;37.24;100179.66;5044202;28;45287;-68
2022/01/09 03:43:54;;;;;;;;;0.00;0.00;;;;;22.12;37.21;100170.06;5047186;28;45455;-68
2022/01/09 03:46:19;;;;;;;;;0.00;0.00;;;;;22.09;37.40;100170.50;5054276;28;45410;-69
2022/01/09 03:48:44;;;;;;;;;0.00;0.00;;;;;22.15;37.79;100196.19;5041001;28;45692;-68
2022/01/09 03:51:10;;;;;;;;;0.00;0.00;;;;;22.10;37.66;100187.19;5038759;28;48575;-68
2022/01/09 03:53:36;;;;;;;;;0.00;0.00;;;;;22.15;37.33;100198.00;5052959;28;45572;-68
2022/01/09 03:56:02;;;;;;;;;1.00;0.00;;;;;22.01;37.64;100173.31;5045709;28;45314;-68
2022/01/09 03:58:28;;;;;;;;;0.75;0.75;;;;;22.15;37.27;100198.00;5054279;28;45514;-68
2022/01/09 04:00:53;;;;;;;;;2.00;0.00;;;;;22.15;37.60;100192.72;5052339;28;45429;-68
2022/01/09 04:03:18;;;;;;;;;0.33;0.00;;;;;22.14;37.76;100207.00;5051446;28;45416;-68
2022/01/09 04:05:44;;;;;;;;;1.67;1.33;;;;;22.04;37.30;100191.47;5049302;28;45554;-68
2022/01/09 04:08:09;;;;;;;;;0.00;0.00;;;;;22.11;37.62;100194.97;5042721;28;45423;-68
2022/01/09 04:10:40;;;;;;;;;1.00;0.00;;;;;22.13;37.28;100205.34;5038253;28;45927;-69
2022/01/09 04:13:06;;;;;;;;;0.00;0.00;;;;;22.10;37.54;100201.25;5039948;28;45550;-68
2022/01/09 04:15:33;;;;;;;;;0.00;0.00;;;;;22.12;37.69;100204.53;5049747;28;45406;-68
2022/01/09 04:17:59;;;;;;;;;1.00;0.00;;;;;22.13;37.30;100198.22;5050004;28;45503;-68
2022/01/09 04:20:28;;;;;;;;;2.00;0.00;;;;;22.13;37.78;100189.44;5045021;28;47213;-68
2022/01/09 04:22:54;;;;;;;;;0.00;0.00;;;;;22.13;37.42;100197.41;5055688;28;45484;-68
2022/01/09 04:25:19;;;;;;;;;4.50;1.00;;;;;22.13;37.07;100206.16;5053331;28;45253;-68
2022/01/09 04:27:46;;;;;;;;;0.25;0.00;;;;;22.13;37.70;100197.41;5041809;28;45277;-68
2022/01/09 04:30:12;;;;;;;;;1.33;0.00;;;;;22.13;37.03;100190.28;5040441;28;45251;-69
2022/01/09 04:32:38;;;;;;;;;1.67;0.33;;;;;22.05;37.22;100190.44;5042704;28;45269;-68
2022/01/09 04:35:04;;;;;;;;;0.00;0.00;;;;;22.11;37.44;100197.59;5055903;28;45635;-68
2022/01/09 04:37:30;;;;;;;;;1.00;0.00;;;;;22.13;37.42;100206.16;5040422;28;45425;-68
2022/01/09 04:39:57;;;;;;;;;0.00;0.00;;;;;22.00;36.95;100190.19;5044050;28;47438;-68
2022/01/09 04:42:28;;;;;;;;;0.00;0.00;;;;;22.13;37.37;100213.28;5050750;28;45272;-68
2022/01/09 04:44:54;;;;;;;;;1.00;0.00;;;;;22.13;37.25;100210.66;5053203;28;45424;-68
2022/01/09 04:47:19;;;;;;;;;0.67;0.33;;;;;22.12;37.02;100211.69;5056696;28;48615;-68
2022/01/09 04:49:47;;;;;;;;;1.33;1.00;;;;;22.11;36.97;100205.56;5054383;28;46419;-68
2022/01/09 04:52:17;;;;;;;;;1.00;0.00;;;;;22.10;37.36;100201.25;5051702;28;45328;-68
2022/01/09 04:54:43;;;;;;;;;0.67;0.67;;;;;22.11;37.50;100199.44;5043023;28;47170;-68
2022/01/09 04:57:08;;;;;;;;;1.50;0.50;;;;;22.01;37.25;100195.31;5045562;28;45345;-68
2022/01/09 04:59:34;;;;;;;;;0.00;0.00;;;;;22.11;37.25;100226.75;5038489;28;46265;-68
2022/01/09 05:01:59;;;;;;;;;1.67;1.00;;;;;22.11;37.42;100234.69;5039487;28;45438;-69
2022/01/09 05:04:25;;;;;;;;;0.00;0.00;;;;;22.11;37.20;100228.56;5053591;28;45560;-68
2022/01/09 05:06:50;;;;;;;;;0.00;0.00;;;;;21.98;37.42;100210.78;5053246;28;45501;-68
2022/01/09 05:09:15;;;;;;;;;0.00;0.00;;;;;22.07;37.19;100225.47;5051300;28;47285;-69
2022/01/09 05:11:41;;;;;;;;;0.00;0.00;;;;;22.09;37.28;100233.25;5051078;28;45307;-68
2022/01/09 05:14:06;;;;;;;;;2.50;0.00;;;;;22.03;37.07;100222.44;5039312;28;45516;-68
2022/01/09 05:16:31;;;;;;;;;1.00;0.00;;;;;22.09;37.27;100226.13;5055396;28;45544;-68
2022/01/09 05:19:06;;;;;;;;;0.00;0.00;;;;;22.08;36.87;100235.06;5045039;28;45378;-68
2022/01/09 05:21:33;;;;;;;;;1.00;0.00;;;;;22.07;37.22;100236.91;5055775;28;45465;-68
2022/01/09 05:23:59;;;;;;;;;1.25;0.00;;;;;22.09;36.99;100231.44;5049626;28;45405;-68
2022/01/09 05:26:24;;;;;;;;;0.00;0.00;;;;;22.00;37.19;100217.50;5051235;28;45497;-68
2022/01/09 05:28:50;;;;;;;;;0.00;0.00;;;;;22.06;36.99;100224.69;5037607;28;45554;-68
2022/01/09 05:31:16;;;;;;;;;0.00;0.00;;;;;22.07;37.27;100225.47;5056072;28;45318;-68
2022/01/09 05:33:41;;;;;;;;;1.00;0.00;;;;;22.06;37.09;100222.03;5049879;28;45576;-68
2022/01/09 05:36:07;;;;;;;;;0.00;0.00;;;;;21.96;37.32;100203.03;5046419;28;45523;-68
2022/01/09 05:38:32;;;;;;;;;0.00;0.00;;;;;22.04;36.97;100220.59;5047559;28;46131;-68
2022/01/09 05:40:58;;;;;;;;;0.00;0.00;;;;;22.05;37.15;100216.91;5065557;28;45340;-68
2022/01/09 05:43:25;;;;;;;;;0.67;0.00;;;;;22.06;36.92;100226.50;5052703;28;45502;-68
2022/01/09 05:45:50;;;;;;;;;0.00;0.00;;;;;22.05;36.92;100249.53;5050622;28;45488;-68
2022/01/09 05:48:17;;;;;;;;;0.00;0.00;;;;;22.00;37.09;100227.28;5048926;28;45345;-68
2022/01/09 05:50:42;;;;;;;;;0.00;0.00;;;;;22.06;36.82;100229.16;5060303;27;45359;-68
2022/01/09 05:53:08;;;;;;;;;0.00;0.00;;;;;22.05;36.90;100215.09;5053482;28;45519;-68
2022/01/09 05:55:33;;;;;;;;;0.00;0.00;;;;;22.05;36.88;100209.78;5034889;28;45487;-68
2022/01/09 05:57:58;;;;;;;;;1.25;0.00;;;;;22.06;36.90;100198.19;5051681;28;46072;-68
2022/01/09 06:00:24;;;;;;;;;0.00;0.00;;;;;22.06;37.20;100206.16;5044689;28;45352;-68
2022/01/09 06:02:49;;;;;;;;;0.25;0.00;;;;;22.05;36.85;100204.50;5041682;28;45461;-68
2022/01/09 06:05:15;;;;;;;;;0.00;0.00;;;;;22.05;37.15;100201.84;5051355;28;46185;-68
2022/01/09 06:07:42;;;;;;;;;1.00;0.00;;;;;22.06;36.59;100205.31;5052421;28;45992;-68
2022/01/09 06:10:08;;;;;;;;;2.00;0.00;;;;;22.05;37.09;100204.50;5038288;28;45470;-68
2022/01/09 06:12:35;;;;;;;;;2.50;1.50;;;;;22.04;36.86;100207.34;5041509;28;45426;-68
2022/01/09 06:15:00;;;;;;;;;0.00;0.00;;;;;22.05;37.16;100212.44;5045296;28;45495;-68
2022/01/09 06:17:26;;;;;;;;;0.00;0.00;;;;;22.07;36.85;100214.88;5053543;28;46078;-68
2022/01/09 06:19:51;;;;;;;;;1.00;0.00;;;;;22.06;36.86;100221.22;5052120;28;45555;-68
2022/01/09 06:22:18;;;;;;;;;0.00;0.00;;;;;22.05;37.05;100217.75;5053355;28;45414;-68
2022/01/09 06:24:50;;;;;;;;;0.00;0.00;;;;;21.97;37.11;100215.25;5045362;28;46483;-68
2022/01/09 06:27:16;;;;;;;;;0.25;0.00;;;;;21.97;36.89;100212.59;5045361;28;47111;-68
2022/01/09 06:29:42;;;;;;;;;1.00;0.00;;;;;22.05;37.04;100227.50;5045912;28;45315;-68
2022/01/09 06:32:07;;;;;;;;;0.00;0.00;;;;;22.05;36.91;100219.56;5044462;28;45303;-68
2022/01/09 06:34:34;;;;;;;;;2.00;1.00;;;;;22.05;36.68;100225.69;5037610;28;45512;-68
2022/01/09 06:36:59;;;;;;;;;2.67;0.00;;;;;22.05;36.82;100222.22;5032127;28;47884;-68
2022/01/09 06:39:26;;;;;;;;;0.00;0.00;;;;;22.03;36.64;100221.59;5043325;28;46311;-69
2022/01/09 06:41:51;;;;;;;;;0.67;0.67;;;;;22.03;37.06;100230.38;5039919;28;45426;-68
2022/01/09 06:44:17;;;;;;;;;0.00;0.00;;;;;22.04;36.90;100224.03;5037264;28;45492;-68
2022/01/09 06:46:43;;;;;;;;;0.00;0.00;;;;;22.03;37.05;100227.72;5041121;28;45809;-68
2022/01/09 06:49:09;;;;;;;;;1.00;0.00;;;;;22.03;37.05;100227.72;5050829;28;45573;-68
2022/01/09 06:51:34;;;;;;;;;1.00;0.00;;;;;22.03;36.82;100216.31;5050362;28;45477;-68
2022/01/09 06:53:59;;;;;;;;;0.00;0.00;;;;;22.02;36.70;100218.13;5046774;28;45533;-68
2022/01/09 06:56:25;;;;;;;;;1.00;0.67;;;;;22.03;36.98;100208.34;5048088;28;45993;-68
2022/01/09 06:58:50;;;;;;;;;1.00;1.00;;;;;22.03;36.99;100208.34;5036894;28;45361;-68
2022/01/09 07:01:15;;;;;;;;;1.00;0.00;;;;;22.03;36.92;100211.00;5042138;28;45757;-68
2022/01/09 07:03:41;;;;;;;;;1.00;0.00;;;;;22.02;37.08;100218.13;5044060;28;45474;-68
2022/01/09 07:06:06;;;;;;;;;1.00;0.00;;;;;22.02;36.95;100222.59;5041986;28;45465;-68
2022/01/09 07:08:33;;;;;;;;;2.75;0.00;;;;;21.98;37.06;100229.31;5047495;28;45486;-68
2022/01/09 07:10:59;;;;;;;;;0.50;0.00;;;;;22.01;36.86;100236.88;5051175;28;45383;-68
2022/01/09 07:13:25;;;;;;;;;0.00;0.00;;;;;22.01;36.71;100236.88;5039561;28;45379;-68
2022/01/09 07:15:50;;;;;;;;;0.00;0.00;;;;;22.02;36.95;100246.44;5033277;28;47377;-68
2022/01/09 07:18:16;;;;;;;;;0.00;0.00;;;;;22.00;36.85;100240.53;5047649;28;45513;-68
2022/01/09 07:20:41;;;;;;;;;0.67;0.00;;;;;22.01;36.48;100250.13;5042390;28;45991;-68
2022/01/09 07:23:07;;;;;;;;;3.00;0.25;;;;;22.00;37.00;100251.94;5041632;28;45589;-68
2022/01/09 07:25:32;;;;;;;;;0.00;0.00;;;;;22.00;36.58;100244.00;5054427;28;46069;-68
2022/01/09 07:27:58;;;;;;;;;0.00;0.00;;;;;21.95;37.06;100235.81;5043930;28;47125;-69
2022/01/09 07:30:26;;;;;;;;;2.00;0.00;;;;;22.00;36.53;100251.13;5042938;28;45311;-68
2022/01/09 07:32:51;;;;;;;;;0.50;0.50;;;;;22.00;36.64;100253.78;5044752;28;45500;-68
2022/01/09 07:35:17;;;;;;;;;0.00;0.00;;;;;21.99;37.04;100255.59;5065498;27;45485;-69
2022/01/09 07:37:42;;;;;;;;;0.00;0.00;;;;;22.00;36.74;100243.19;5054622;28;45455;-68
2022/01/09 07:40:08;;;;;;;;;0.00;0.00;;;;;21.99;36.80;100239.69;5054354;28;45484;-69
2022/01/09 07:42:33;;;;;;;;;1.00;1.00;;;;;22.00;36.42;100251.13;5046065;28;45536;-68
2022/01/09 07:44:59;;;;;;;;;0.00;0.00;;;;;21.99;37.07;100258.25;5039958;28;47191;-68
2022/01/09 07:47:25;;;;;;;;;1.67;0.00;;;;;21.99;37.04;100252.16;5046935;28;45436;-69
2022/01/09 07:49:50;;;;;;;;;1.00;0.00;;;;;22.00;36.79;100256.41;5038220;28;45494;-68
2022/01/09 07:52:15;;;;;;;;;0.33;0.33;;;;;22.00;36.48;100256.41;5052126;28;45389;-68
2022/01/09 07:54:41;;;;;;;;;0.00;0.00;;;;;22.00;36.26;100254.59;5045175;28;45378;-69
2022/01/09 07:57:06;;;;;;;;;1.33;0.00;;;;;22.01;36.56;100252.78;5045636;28;45636;-68
2022/01/09 07:59:32;;;;;;;;;0.00;0.00;;;;;21.99;36.77;100250.28;5053376;28;45722;-68
2022/01/09 08:01:57;;;;;;;;;0.00;0.00;;;;;22.01;36.57;100268.66;5046789;28;45499;-68
2022/01/09 08:04:22;;;;;;;;;1.00;0.00;;;;;22.01;36.87;100273.97;5042815;28;46384;-68
2022/01/09 08:06:47;;;;;;;;;0.00;0.00;;;;;22.01;36.56;100271.31;5052869;28;45495;-68
2022/01/09 08:09:13;;;;;;;;;2.00;1.00;;;;;21.98;36.92;100267.22;5052637;28;45545;-68
2022/01/09 08:11:38;;;;;;;;;1.00;1.00;;;;;22.00;36.88;100270.50;5052378;28;45339;-69
2022/01/09 08:14:03;;;;;;;;;0.00;0.00;;;;;22.00;36.35;100272.31;5038575;28;50934;-68
2022/01/09 08:16:29;;;;;;;;;1.00;0.00;;;;;22.00;36.85;100274.97;5055940;28;45372;-68
2022/01/09 08:18:54;;;;;;;;;1.00;0.00;;;;;22.00;36.45;100280.25;5051955;28;45496;-68
2022/01/09 08:21:20;;;;;;;;;0.00;0.00;;;;;21.99;36.69;100284.72;5047157;28;45327;-68
2022/01/09 08:23:49;;;;;;;;;0.00;0.00;;;;;21.99;36.72;100297.19;5043114;28;45474;-68
2022/01/09 08:26:16;;;;;;;;;0.00;0.00;;;;;21.94;36.69;100295.91;5051025;28;45288;-68
2022/01/09 08:28:45;;;;;;;;;0.00;0.00;;;;;21.99;36.29;100302.47;5054364;28;45229;-68
2022/01/09 08:31:11;;;;;;;;;0.75;0.00;;;;;21.97;36.85;100297.34;5042099;28;45528;-68
2022/01/09 08:33:37;;;;;;;;;0.00;0.00;;;;;21.98;36.88;100292.88;5039952;28;46307;-68
2022/01/09 08:36:03;;;;;;;;;2.00;0.00;;;;;21.98;36.48;100295.53;5039540;28;45504;-68
2022/01/09 08:38:28;;;;;;;;;0.00;0.00;;;;;21.98;36.95;100296.34;5041788;28;45667;-68
2022/01/09 08:40:53;;;;;;;;;1.50;0.00;;;;;21.93;36.47;100301.41;5039715;28;45308;-68
2022/01/09 08:43:19;;;;;;;;;2.00;0.00;;;;;21.96;36.40;100315.06;5042327;28;45477;-68
2022/01/09 08:45:44;;;;;;;;;0.00;0.00;;;;;21.98;36.68;100319.38;5042592;28;45503;-68
2022/01/09 08:48:09;;;;;;;;;0.25;0.00;;;;;21.98;36.70;100312.25;5049208;28;45499;-68
2022/01/09 08:50:35;;;;;;;;;0.00;0.00;;;;;21.96;36.37;100316.94;5055053;28;45485;-68
2022/01/09 08:53:00;;;;;;;;;2.00;0.50;;;;;21.96;36.54;100314.28;5038434;28;45992;-69
2022/01/09 08:55:26;;;;;;;;;0.00;0.00;;;;;21.95;36.91;100310.81;5023511;28;45484;-68
2022/01/09 08:57:51;;;;;;;;;2.00;0.00;;;;;21.95;36.46;100300.22;5021268;28;45323;-68
2022/01/09 09:00:18;;;;;;;;;0.00;0.00;;;;;21.86;36.53;100288.06;5039058;28;45386;-68
2022/01/09 09:02:44;;;;;;;;;0.00;0.00;;;;;21.95;36.44;100324.06;5042601;28;46268;-68
2022/01/09 09:05:09;;;;;;;;;0.25;0.25;;;;;21.85;36.57;100297.06;5053497;28;45481;-68
2022/01/09 09:07:35;;;;;;;;;0.00;0.00;;;;;21.93;36.45;100304.88;5053497;28;45339;-68
2022/01/09 09:10:04;;;;;;;;;2.00;0.00;;;;;21.94;36.42;100311.81;5057251;28;45451;-68
2022/01/09 09:12:31;;;;;;;;;0.00;0.00;;;;;21.94;36.81;100287.13;5052943;28;45278;-68
2022/01/09 09:14:56;;;;;;;;;3.25;0.00;;;;;21.94;36.36;100287.97;5050546;28;45411;-68
2022/01/09 09:17:23;;;;;;;;;1.00;0.00;;;;;21.92;36.59;100286.53;5045638;28;45410;-68
2022/01/09 09:19:48;;;;;;;;;0.00;0.00;;;;;21.89;36.77;100277.13;5038820;28;45537;-68
2022/01/09 09:22:14;;;;;;;;;0.00;0.00;;;;;21.96;36.97;100278.00;5043515;28;46118;-68
2022/01/09 09:24:40;;;;;;;;;0.00;0.00;;;;;21.97;36.30;100281.47;5040547;28;48531;-68
2022/01/09 09:27:06;;;;;;;;;0.00;0.00;;;;;21.99;36.49;100289.25;5041406;28;45367;-68
2022/01/09 09:29:31;;;;;;;;;1.50;0.00;;;;;21.98;36.59;100285.75;5039191;28;45362;-68
2022/01/09 09:31:57;;;;;;;;;1.00;0.00;;;;;21.99;36.41;100290.03;5054815;28;46080;-69
2022/01/09 09:34:22;;;;;;;;;0.00;0.00;;;;;22.01;36.84;100295.16;5052657;28;45330;-68
2022/01/09 09:36:48;;;;;;;;;0.00;0.00;;;;;22.02;36.79;100315.31;5044504;28;45560;-68
2022/01/09 09:39:13;;;;;;;;;0.00;0.00;;;;;22.02;36.34;100331.22;5050509;28;45303;-69
2022/01/09 09:41:41;;;;;;;;;0.75;0.00;;;;;21.99;36.38;100326.31;5051391;28;45350;-68
2022/01/09 09:44:09;;;;;;;;;3.00;0.00;;;;;22.03;36.74;100338.16;5038347;28;45409;-68
2022/01/09 09:46:35;;;;;;;;;0.00;0.00;;;;;22.04;36.68;100323.91;5039004;28;45362;-68
2022/01/09 09:49:00;;;;;;;;;0.00;0.00;;;;;22.04;36.52;100322.06;5041580;28;45453;-68
2022/01/09 09:51:27;;;;;;;;;0.00;0.00;;;;;21.99;36.43;100307.78;5048984;28;45539;-68
2022/01/09 09:53:52;;;;;;;;;0.25;0.00;;;;;22.05;36.77;100301.69;5053308;28;45427;-68
2022/01/09 09:56:18;;;;;;;;;0.00;0.00;;;;;22.04;36.86;100347.75;5051453;28;45324;-68
2022/01/09 09:58:43;;;;;;;;;2.00;1.00;;;;;22.00;36.36;100333.25;5052248;28;45482;-68
2022/01/09 10:01:22;;;;;;;;;1.00;0.00;;;;;22.05;36.25;100355.50;5046510;28;45720;-68
2022/01/09 10:03:57;;;;;;;;;0.00;0.00;;;;;22.05;36.31;100346.72;5040975;28;45853;-68
2022/01/09 10:06:46;;;;;;;;;0.00;0.00;;;;;22.05;36.74;100357.31;5045023;28;45188;-68
2022/01/09 10:09:17;;;;;;;;;0.25;0.00;;;;;22.06;36.44;100366.91;5045989;28;45571;-68
2022/01/09 10:11:49;;;;;;;;;0.00;0.00;;;;;22.05;36.57;100366.09;5038468;28;46200;-68
2022/01/09 10:14:14;;;;;;;;;0.00;0.00;;;;;22.06;36.33;100369.56;5038189;28;45489;-68
2022/01/09 10:16:40;;;;;;;;;0.00;0.00;;;;;21.99;36.75;100363.41;5051889;28;45443;-68
2022/01/09 10:19:05;;;;;;;;;0.00;0.00;;;;;22.06;36.43;100367.75;5051400;28;45543;-68
2022/01/09 10:21:31;;;;;;;;;0.00;0.00;;;;;22.06;36.38;100373.03;5049067;28;46129;-68
2022/01/09 10:24:03;;;;;;;;;1.00;0.00;;;;;22.07;36.71;100382.59;5049022;28;45406;-68
2022/01/09 10:26:30;;;;;;;;;0.00;0.00;;;;;22.06;36.77;100377.50;5052316;28;45462;-68
2022/01/09 10:28:56;;;;;;;;;0.00;0.00;;;;;22.02;36.40;100363.00;5054013;28;45406;-68
2022/01/09 10:31:21;;;;;;;;;1.33;0.00;;;;;22.06;36.19;100380.16;5051344;28;45319;-68
2022/01/09 10:34:10;;;;;;;;;0.00;0.00;;;;;22.04;36.69;100380.34;5049340;28;45363;-68
2022/01/09 10:36:39;;;;;;;;;0.00;0.00;;;;;22.06;36.81;100393.41;5039859;28;45455;-68
2022/01/09 10:39:07;;;;;;;;;0.50;0.00;;;;;21.97;36.65;100374.16;5040861;28;45236;-68
2022/01/09 10:41:50;;;;;;;;;0.00;0.00;;;;;22.05;36.74;100395.22;5041763;28;46169;-68
2022/01/09 10:44:18;;;;;;;;;1.00;0.67;;;;;22.05;36.67;100403.19;5038829;28;45283;-68
2022/01/09 10:46:58;;;;;;;;;0.00;0.00;;;;;22.06;36.82;100401.34;5041872;28;45384;-68
2022/01/09 10:49:34;;;;;;;;;0.67;0.00;;;;;22.05;36.55;100386.47;5050843;28;45541;-68
2022/01/09 10:52:26;;;;;;;;;0.00;0.00;;;;;22.00;36.46;100396.81;5054973;28;45358;-68
2022/01/09 10:54:56;;;;;;;;;0.00;0.00;;;;;22.05;36.47;100408.47;5040386;28;45558;-69
2022/01/09 10:57:23;;;;;;;;;0.00;0.00;;;;;22.05;36.42;100408.47;5040495;28;45957;-68
2022/01/09 10:59:50;;;;;;;;;1.33;0.00;;;;;22.06;36.62;100399.53;5039980;28;45552;-68
2022/01/09 11:02:16;;;;;;;;;0.00;0.00;;;;;22.06;36.22;100415.44;5050639;28;47105;-68
2022/01/09 11:04:46;;;;;;;;;1.00;0.00;;;;;22.06;36.43;100418.06;5052616;28;45321;-68
2022/01/09 11:07:12;;;;;;;;;0.00;0.00;;;;;22.07;36.60;100408.28;5051096;28;45450;-68
2022/01/09 11:09:40;;;;;;;;;0.00;0.00;;;;;22.07;36.62;100392.38;5041255;28;45535;-69
2022/01/09 11:12:07;;;;;;;;;0.00;0.00;;;;;22.06;36.14;100393.41;5042898;28;46180;-68
2022/01/09 11:14:36;;;;;;;;;1.33;0.00;;;;;22.07;36.36;100392.38;5048570;28;45343;-68
2022/01/09 11:17:04;;;;;;;;;1.75;0.75;;;;;22.09;36.20;100402.81;5053626;28;45182;-68
2022/01/09 11:19:30;;;;;;;;;0.00;0.00;;;;;21.99;36.34;100381.94;5054677;28;45643;-68
2022/01/09 11:22:01;;;;;;;;;0.00;0.00;;;;;22.07;36.22;100393.22;5050262;28;46149;-68
2022/01/09 11:24:54;;;;;;;;;0.00;0.00;;;;;22.07;36.65;100405.63;5047320;28;45467;-68